Ottoman Nobility — TCDA2 — position and weather

sailwx.info

Track history (hours):
 
Tides and Currents Weather Stations Pressure Air Temp Water Temp Dewpoint Dewpoint Depression Visibility Wind Speed Wind Dir Waves Ship Positions

Ottoman Nobility

Last reported at 2016-Aug-12 18:33 UTC. Time now 2016-Aug-30 07:21 UTC.
Position N 01°53' E 102°24'.
Warning: this ship's position is 17 days out of date.

; draft 8.6 m.

Type: Ship. MMSI: 271000773.

Date/timePositionNaut miles runAvg speedWind from/ knotsBaromVisibWave heightAir tempDewpointWater temp
2016-Aug-12 18:33N 01°53' E 102°24'1412.9
2016-Aug-12 17:30N 01°48' E 102°36'8511.8
2016-Aug-12 10:17N 01°13' E 103°54'5 7.0
2016-Aug-12 09:33N 01°16' E 103°58'3 1.6
2016-Aug-12 07:27N 01°17' E 104°01'0 0.1
2016-Aug-12 06:15N 01°17' E 104°01'0 0.1
2016-Aug-12 03:31N 01°17' E 104°01'0 0.0
2016-Aug-12 02:28N 01°17' E 104°01'0 0.1
2016-Aug-12 01:31N 01°17' E 104°01'0 0.0
2016-Aug-12 00:19N 01°17' E 104°01'0 0.0
2016-Aug-11 20:32N 01°17' E 104°02'0 0.0
2016-Aug-11 19:33N 01°17' E 104°02'0 0.0
2016-Aug-11 16:30N 01°17' E 104°02'0 0.0
2016-Aug-11 15:33N 01°17' E 104°02'0 0.0
2016-Aug-11 13:21N 01°17' E 104°02'0 0.0
2016-Aug-11 12:33N 01°17' E 104°02'0 0.0
2016-Aug-11 11:24N 01°17' E 104°02'0 0.2
2016-Aug-11 10:33N 01°17' E 104°02'3 3.1
2016-Aug-11 09:33N 01°17' E 104°05'7 7.4
2016-Aug-11 08:33N 01°17' E 104°12'  
Track history (hours):
 
Tides and Currents Weather Stations Pressure Air Temp Water Temp Dewpoint Dewpoint Depression Visibility Wind Speed Wind Dir Waves Ship Positions

Ottoman Nobility

Last reported at 2016-Aug-12 18:33 UTC. Time now 2016-Aug-30 07:21 UTC.
Position N 01°53' E 102°24'.
Warning: this ship's position is 17 days out of date.

; draft 8.6 m.

Type: Ship. MMSI: 271000773.

Date/timePositionNaut miles runAvg speedWind from/ knotsBaromVisibWave heightAir tempDewpointWater temp
2016-Aug-12 18:33N 01°53' E 102°24'1412.9
2016-Aug-12 17:30N 01°48' E 102°36'8511.8
2016-Aug-12 10:17N 01°13' E 103°54'5 7.0
2016-Aug-12 09:33N 01°16' E 103°58'3 1.6
2016-Aug-12 07:27N 01°17' E 104°01'0 0.1
2016-Aug-12 06:15N 01°17' E 104°01'0 0.1
2016-Aug-12 03:31N 01°17' E 104°01'0 0.0
2016-Aug-12 02:28N 01°17' E 104°01'0 0.1
2016-Aug-12 01:31N 01°17' E 104°01'0 0.0
2016-Aug-12 00:19N 01°17' E 104°01'0 0.0
2016-Aug-11 20:32N 01°17' E 104°02'0 0.0
2016-Aug-11 19:33N 01°17' E 104°02'0 0.0
2016-Aug-11 16:30N 01°17' E 104°02'0 0.0
2016-Aug-11 15:33N 01°17' E 104°02'0 0.0
2016-Aug-11 13:21N 01°17' E 104°02'0 0.0
2016-Aug-11 12:33N 01°17' E 104°02'0 0.0
2016-Aug-11 11:24N 01°17' E 104°02'0 0.2
2016-Aug-11 10:33N 01°17' E 104°02'3 3.1
2016-Aug-11 09:33N 01°17' E 104°05'7 7.4
2016-Aug-11 08:33N 01°17' E 104°12'  

Dump ship's entire track history